createdAt,value
2022-08-05T00:02:38.862Z,93710.34
2022-08-05T00:08:00.741Z,93724.38
2022-08-05T00:13:04.901Z,93713.03
2022-08-05T00:18:08.402Z,93703.56
2022-08-05T00:23:12.962Z,93697.88
2022-08-05T00:28:29.404Z,93699.41
2022-08-05T00:34:53.307Z,93704.06
2022-08-05T00:38:59.337Z,93702.16
2022-08-05T00:44:03.386Z,93700.69
2022-08-05T00:49:06.436Z,93661.19
2022-08-05T01:06:33.888Z,93670.13
2022-08-05T01:11:39.748Z,93678.00
2022-08-05T01:17:00.481Z,93684.75
2022-08-05T01:22:39.581Z,93675.78
2022-08-05T01:28:13.845Z,93671.94
2022-08-05T01:33:22.223Z,93663.50
2022-08-05T01:38:30.562Z,93670.78
2022-08-05T01:43:36.499Z,93670.91
2022-08-05T01:48:49.599Z,93672.03
2022-08-05T01:53:58.632Z,93652.97
2022-08-05T01:59:09.421Z,93662.75
2022-08-05T02:04:15.605Z,93660.09
2022-08-05T02:09:20.706Z,93649.63
2022-08-05T02:14:35.543Z,93659.81
2022-08-05T02:19:47.597Z,93653.44
2022-08-05T02:24:53.021Z,93658.44
2022-08-05T02:29:59.054Z,93653.88
2022-08-05T02:35:13.605Z,93651.63
2022-08-05T02:40:19.508Z,93635.00
2022-08-05T02:45:25.735Z,93632.75
2022-08-05T02:50:30.161Z,93649.63
2022-08-05T02:55:54.266Z,93651.69
2022-08-05T03:01:01.136Z,93641.16
2022-08-05T03:06:54.657Z,93643.75
2022-08-05T03:11:54.979Z,93650.31
2022-08-05T03:16:53.343Z,93638.53
2022-08-05T03:21:57.496Z,93629.66
2022-08-05T03:27:01.582Z,93641.41
2022-08-05T03:32:06.883Z,93631.41
2022-08-05T03:37:12.942Z,93627.25
2022-08-05T03:42:17.593Z,93643.72
2022-08-05T03:47:22.161Z,93640.94
2022-08-05T03:52:50.492Z,93657.72
2022-08-05T03:57:57.186Z,93658.03
2022-08-05T04:03:03.331Z,93648.91
2022-08-05T04:08:29.635Z,93654.56
2022-08-05T04:13:51.273Z,93655.47
2022-08-05T04:18:58.091Z,93661.47
2022-08-05T04:24:07.021Z,93667.59
2022-08-05T04:29:11.209Z,93648.75
2022-08-05T04:34:29.578Z,93666.91
2022-08-05T04:39:35.747Z,93664.31
2022-08-05T04:44:39.847Z,93647.97
2022-08-05T04:50:02.556Z,93661.47
2022-08-05T04:55:14.171Z,93670.56
2022-08-05T05:00:23.485Z,93660.34
2022-08-05T05:05:29.095Z,93669.38
2022-08-05T05:10:39.818Z,93663.13
2022-08-05T05:15:56.890Z,93644.03
2022-08-05T05:21:06.033Z,93651.31
2022-08-05T05:26:09.419Z,93655.69
2022-08-05T05:31:13.137Z,93658.78
2022-08-05T05:36:16.579Z,93657.53
2022-08-05T05:41:20.398Z,93662.78
2022-08-05T05:46:23.440Z,93664.50
2022-08-05T05:51:28.033Z,93664.25
2022-08-05T05:56:34.793Z,93654.66
2022-08-05T06:01:40.202Z,93667.97
2022-08-05T06:06:47.291Z,93674.66
2022-08-05T06:12:01.097Z,93670.09
2022-08-05T06:17:24.192Z,93670.44
2022-08-05T06:22:33.582Z,93675.59
2022-08-05T06:28:12.623Z,93668.59
2022-08-05T06:33:03.398Z,93669.31
2022-08-05T06:38:10.082Z,93675.09
2022-08-05T06:43:51.710Z,93673.59
2022-08-05T06:48:53.531Z,93680.47
2022-08-05T06:54:01.708Z,93677.41
2022-08-05T06:59:08.467Z,93680.19
2022-08-05T07:04:14.258Z,93682.38
2022-08-05T07:09:19.627Z,93693.75
2022-08-05T07:14:43.813Z,93698.44
2022-08-05T07:25:53.811Z,93694.06
2022-08-05T07:30:39.231Z,93688.22
2022-08-05T07:36:02.437Z,93690.91
2022-08-05T07:42:09.232Z,93693.00
2022-08-05T07:46:33.776Z,93703.19
2022-08-05T07:51:48.598Z,93699.88
2022-08-05T07:57:01.414Z,93705.53
2022-08-05T08:02:18.327Z,93717.53
2022-08-05T08:07:23.164Z,93699.53
2022-08-05T08:12:37.886Z,93711.41
2022-08-05T08:17:53.042Z,93707.13
2022-08-05T08:23:03.424Z,93693.69
2022-08-05T08:28:07.193Z,93708.31
2022-08-05T08:33:22.679Z,93706.16
2022-08-05T08:38:35.293Z,93700.97
2022-08-05T08:45:21.320Z,93707.28
2022-08-05T08:50:23.391Z,93710.19
2022-08-05T08:54:29.617Z,93710.63
2022-08-05T08:59:33.558Z,93715.63
2022-08-05T09:04:57.819Z,93710.09
2022-08-05T09:10:02.042Z,93698.47
2022-08-05T09:15:06.854Z,93713.56
2022-08-05T09:20:11.869Z,93704.63
2022-08-05T09:25:23.868Z,93700.34
2022-08-05T09:31:01.156Z,93688.25
2022-08-05T09:36:27.908Z,93693.75
2022-08-05T09:42:05.039Z,93700.41
2022-08-05T09:47:36.416Z,93700.97
2022-08-05T09:52:58.217Z,93698.50
2022-08-05T09:58:13.950Z,93707.78
2022-08-05T10:03:17.142Z,93705.66
2022-08-05T10:08:36.791Z,93695.28
2022-08-05T10:13:47.314Z,93693.13
2022-08-05T10:18:51.889Z,93703.13
2022-08-05T10:23:59.600Z,93706.50
2022-08-05T10:29:04.102Z,93696.91
2022-08-05T10:34:11.096Z,93698.59
2022-08-05T10:39:25.176Z,93688.06
2022-08-05T10:44:46.018Z,93692.91
2022-08-05T10:50:35.297Z,93686.22
2022-08-05T10:56:03.232Z,93691.59
2022-08-05T11:01:03.122Z,93653.06
2022-08-05T11:06:15.230Z,93691.53
2022-08-05T11:11:44.759Z,93673.94
2022-08-05T11:17:57.837Z,93674.63
2022-08-05T11:22:54.116Z,93675.81
2022-08-05T11:28:17.219Z,93669.88
2022-08-05T11:33:53.717Z,93669.53
2022-08-05T11:38:57.844Z,93663.47
2022-08-05T11:44:12.866Z,93667.59
2022-08-05T11:49:36.424Z,93660.69
2022-08-05T11:54:43.445Z,93665.72
2022-08-05T11:59:51.844Z,93662.28
2022-08-05T12:04:59.204Z,93652.56
2022-08-05T12:10:09.667Z,93638.66
2022-08-05T12:15:37.864Z,93654.53
2022-08-05T12:20:42.151Z,93649.28
2022-08-05T12:25:53.300Z,93655.63
2022-08-05T12:30:58.333Z,93660.84
2022-08-05T12:36:08.353Z,93659.72
2022-08-05T12:41:16.625Z,93654.63
2022-08-05T12:46:32.189Z,93650.81
2022-08-05T12:52:14.331Z,93659.50
2022-08-05T12:57:23.257Z,93656.41
2022-08-05T13:02:30.763Z,93646.97
2022-08-05T13:07:59.415Z,93633.59
2022-08-05T13:12:58.602Z,93632.25
2022-08-05T13:18:01.766Z,93640.09
2022-08-05T13:23:07.088Z,93630.09
2022-08-05T13:28:10.740Z,93631.03
2022-08-05T13:34:20.162Z,93632.22
2022-08-05T13:38:42.041Z,93623.72
2022-08-05T13:43:54.809Z,93604.03
2022-08-05T13:49:00.683Z,93618.16
2022-08-05T13:54:12.267Z,93615.38
2022-08-05T13:59:19.665Z,93606.41
2022-08-05T14:04:42.324Z,93604.13
2022-08-05T14:09:46.418Z,93593.56
2022-08-05T14:14:51.465Z,93604.63
2022-08-05T14:20:00.890Z,93593.97
2022-08-05T14:25:21.839Z,93571.63
2022-08-05T14:30:26.592Z,93576.22
2022-08-05T14:35:50.294Z,93563.69
2022-08-05T14:40:54.873Z,93565.00
2022-08-05T14:45:58.360Z,93576.41
2022-08-05T14:51:01.383Z,93570.44
2022-08-05T14:56:06.896Z,93560.06
2022-08-05T15:01:16.109Z,93580.75
2022-08-05T15:06:27.946Z,93582.44
2022-08-05T15:11:51.862Z,93579.72
2022-08-05T15:16:56.573Z,93585.97
2022-08-05T15:22:01.558Z,93582.16
2022-08-05T15:27:04.951Z,93580.50
2022-08-05T15:32:12.159Z,93577.25
2022-08-05T15:37:19.385Z,93576.41
2022-08-05T15:42:57.042Z,93569.19
2022-08-05T15:48:02.958Z,93567.44
2022-08-05T15:53:06.501Z,93558.91
2022-08-05T15:58:16.419Z,93562.63
2022-08-05T16:03:19.937Z,93573.88
2022-08-05T16:08:23.982Z,93578.59
2022-08-05T16:13:34.850Z,93582.13
2022-08-05T16:18:52.557Z,93581.59
2022-08-05T16:24:00.149Z,93579.03
2022-08-05T16:29:05.991Z,93582.03
2022-08-05T16:34:11.420Z,93575.31
2022-08-05T16:39:15.401Z,93553.06
2022-08-05T16:44:18.697Z,93563.72
2022-08-05T16:49:24.120Z,93571.38
2022-08-05T16:54:30.477Z,93575.25
2022-08-05T17:00:01.493Z,93572.06
2022-08-05T17:04:59.146Z,93582.63
2022-08-05T17:10:02.864Z,93580.88
2022-08-05T17:15:07.662Z,93588.72
2022-08-05T17:20:14.860Z,93583.41
2022-08-05T17:25:22.141Z,93528.94
2022-08-05T17:30:42.738Z,93581.69
2022-08-05T17:36:07.741Z,93578.03
2022-08-05T17:42:18.567Z,93576.88
2022-08-05T17:46:36.452Z,93588.34
2022-08-05T17:51:40.425Z,93585.94
2022-08-05T17:56:44.784Z,93602.44
2022-08-05T18:01:52.258Z,93588.84
2022-08-05T18:06:55.461Z,93591.56
2022-08-05T18:12:03.792Z,93594.50
2022-08-05T18:17:07.235Z,93597.59
2022-08-05T18:22:36.195Z,93601.56
2022-08-05T18:27:52.417Z,93611.38
2022-08-05T18:33:00.975Z,93606.50
2022-08-05T18:38:04.925Z,93592.81
2022-08-05T18:43:09.140Z,93594.88
2022-08-05T18:48:31.125Z,93602.13
2022-08-05T18:53:42.973Z,93609.81
2022-08-05T18:58:50.981Z,93607.22
2022-08-05T19:03:57.940Z,93610.84
2022-08-05T19:09:01.382Z,93604.84
2022-08-05T19:14:15.310Z,93627.31
2022-08-05T19:19:27.552Z,93617.53
2022-08-05T19:24:35.101Z,93615.25
2022-08-05T19:29:38.960Z,93625.56
2022-08-05T19:34:42.077Z,93629.38
2022-08-05T19:39:59.335Z,93635.06
2022-08-05T19:45:02.939Z,93626.97
2022-08-05T19:50:11.969Z,93635.63
2022-08-05T19:56:14.088Z,93630.97
2022-08-05T20:00:39.784Z,93627.53
2022-08-05T20:05:51.179Z,93633.88
2022-08-05T20:10:55.507Z,93643.88
2022-08-05T20:15:59.689Z,93620.91
2022-08-05T20:21:04.640Z,93615.81
2022-08-05T20:26:16.351Z,93632.47
2022-08-05T20:31:28.320Z,93620.94
2022-08-05T20:36:43.319Z,93609.59
2022-08-05T20:41:50.046Z,93625.03
2022-08-05T20:46:53.253Z,93622.72
2022-08-05T20:51:58.147Z,93616.94
2022-08-05T20:57:03.376Z,93613.72
2022-08-05T21:02:07.105Z,93611.72
2022-08-05T21:07:10.262Z,93604.72
2022-08-05T21:12:19.601Z,93591.38
2022-08-05T21:17:22.770Z,93603.81
2022-08-05T21:22:26.485Z,93606.69
2022-08-05T21:27:38.670Z,93612.88
2022-08-05T21:32:42.293Z,93623.34
2022-08-05T21:37:47.195Z,93607.97
2022-08-05T21:42:56.377Z,93601.31
2022-08-05T21:48:06.315Z,93602.44
2022-08-05T21:53:17.445Z,93605.00
2022-08-05T21:58:30.834Z,93605.53
2022-08-05T22:03:51.606Z,93599.84
2022-08-05T22:08:56.931Z,93594.63
2022-08-05T22:14:33.490Z,93592.34
2022-08-05T22:20:02.180Z,93591.22
2022-08-05T22:25:08.742Z,93596.78
2022-08-05T22:30:21.890Z,93584.06
2022-08-05T22:35:24.976Z,93585.38
2022-08-05T22:40:30.677Z,93574.28
2022-08-05T22:45:34.372Z,93566.84
2022-08-05T22:50:40.841Z,93573.38
2022-08-05T22:55:57.286Z,93569.47
2022-08-05T23:01:02.824Z,93556.19
2022-08-05T23:06:07.760Z,93559.41
2022-08-05T23:11:13.871Z,93547.28
2022-08-05T23:16:39.244Z,93550.06
2022-08-05T23:21:48.557Z,93541.19
2022-08-05T23:26:52.182Z,93538.41
2022-08-05T23:31:56.454Z,93540.72
2022-08-05T23:37:00.004Z,93550.50
2022-08-05T23:42:04.006Z,93545.28
2022-08-05T23:47:15.248Z,93559.47
2022-08-05T23:52:31.988Z,93554.66
2022-08-05T23:57:36.206Z,93551.13
